Time;durP1;ratioP1;P1;durP2;ratioP2;P2;SDS_P1;SDS_P2;PMS_P1;PMS_P2;Temp;Humidity;BMP_temperature;BMP_pressure;BME280_temperature;BME280_humidity;BME280_pressure;Samples;Min_cycle;Max_cycle;Signal;HPM_P1;HPM_P2
2022/03/18 00:01:04;;;;;;;25.95;15.55;;;4.80;99.90;;;;;;2701627;39;20551;31
2022/03/18 00:03:41;;;;;;;32.30;17.47;;;4.70;99.90;;;;;;2603102;54;20853;31
2022/03/18 00:06:17;;;;;;;25.08;15.75;;;4.70;99.90;;;;;;2621530;46;20038;31
2022/03/18 00:08:59;;;;;;;26.05;15.32;;;4.70;99.90;;;;;;2602470;54;20135;31
2022/03/18 00:11:34;;;;;;;33.92;17.60;;;4.70;99.90;;;;;;2602763;54;20046;31
2022/03/18 00:14:11;;;;;;;30.52;16.90;;;4.60;99.90;;;;;;2602448;54;20027;31
2022/03/18 00:16:48;;;;;;;35.67;17.52;;;4.60;99.90;;;;;;2602303;54;20033;31
2022/03/18 00:19:25;;;;;;;31.90;17.73;;;4.50;99.90;;;;;;2603000;54;20097;31
2022/03/18 00:22:03;;;;;;;29.40;17.08;;;4.50;99.90;;;;;;2603145;54;20026;31
2022/03/18 00:24:42;;;;;;;32.70;17.88;;;4.50;99.90;;;;;;2603136;54;20033;31
2022/03/18 00:27:17;;;;;;;32.78;18.90;;;4.50;99.90;;;;;;2603100;54;20882;31
2022/03/18 00:29:54;;;;;;;30.67;17.80;;;4.40;99.90;;;;;;2602999;54;20869;31
2022/03/18 00:32:32;;;;;;;31.77;18.23;;;4.30;99.90;;;;;;2621640;46;20268;31
2022/03/18 00:35:06;;;;;;;33.03;18.05;;;4.30;99.90;;;;;;2621461;46;20862;31
2022/03/18 00:37:43;;;;;;;30.92;18.33;;;4.30;99.90;;;;;;2621399;46;20585;31
2022/03/18 00:40:22;;;;;;;38.80;18.60;;;4.20;99.90;;;;;;2621458;46;20850;31
2022/03/18 00:43:00;;;;;;;32.55;17.17;;;4.20;99.90;;;;;;2603126;54;20882;31
2022/03/18 00:45:35;;;;;;;31.73;17.48;;;4.20;99.90;;;;;;2602677;54;20048;31
2022/03/18 00:54:01;;;;;;;35.97;18.95;;;4.20;99.90;;;;;;2602877;54;20030;31
2022/03/18 00:56:41;;;;;;;41.95;20.27;;;4.10;99.90;;;;;;2601998;54;20026;31
2022/03/18 00:59:18;;;;;;;36.83;19.85;;;4.10;99.90;;;;;;2602084;54;21604;31
2022/03/18 01:01:56;;;;;;;35.95;20.10;;;4.10;99.90;;;;;;2602710;54;20034;31
2022/03/18 01:07:07;;;;;;;39.70;19.73;;;4.00;99.90;;;;;;2602099;54;20033;31
2022/03/18 01:09:42;;;;;;;39.15;21.77;;;4.00;99.90;;;;;;2602771;54;20892;31
2022/03/18 01:12:21;;;;;;;34.90;20.30;;;3.90;99.90;;;;;;2603114;54;20854;31
2022/03/18 01:14:57;;;;;;;34.53;19.60;;;4.00;99.90;;;;;;2602943;54;20112;31
2022/03/18 01:17:33;;;;;;;33.87;18.43;;;3.90;99.90;;;;;;2602943;54;20030;31
2022/03/18 01:20:11;;;;;;;35.40;18.90;;;3.90;99.90;;;;;;2611062;46;20059;31
2022/03/18 01:22:47;;;;;;;36.17;18.42;;;3.90;99.90;;;;;;2603107;54;20877;31
2022/03/18 01:25:23;;;;;;;30.30;18.85;;;3.90;99.90;;;;;;2602947;54;20030;31
2022/03/18 01:28:03;;;;;;;33.28;19.10;;;3.90;99.90;;;;;;2621347;46;20031;31
2022/03/18 01:30:39;;;;;;;35.33;19.67;;;3.90;99.90;;;;;;2602814;54;20126;31
2022/03/18 01:33:16;;;;;;;34.65;18.90;;;3.90;99.90;;;;;;2602598;54;20748;31
2022/03/18 01:35:53;;;;;;;30.75;18.05;;;3.80;99.90;;;;;;2602642;54;20026;31
2022/03/18 01:41:03;;;;;;;31.77;19.13;;;3.80;99.90;;;;;;2602833;54;20092;31
2022/03/18 01:43:46;;;;;;;36.90;19.85;;;3.70;99.90;;;;;;2602732;54;20896;31
2022/03/18 01:46:21;;;;;;;36.95;19.45;;;3.70;99.90;;;;;;2602905;54;20030;31
2022/03/18 01:48:57;;;;;;;34.10;18.67;;;3.70;99.90;;;;;;2602619;54;20175;31
2022/03/18 01:51:35;;;;;;;34.47;20.40;;;3.70;99.90;;;;;;2602861;54;21189;31
2022/03/18 01:56:59;;;;;;;32.25;18.60;;;3.60;99.90;;;;;;2603054;54;22324;31
2022/03/18 01:59:34;;;;;;;35.13;19.90;;;3.60;99.90;;;;;;2602786;54;20131;31
2022/03/18 02:02:15;;;;;;;37.00;19.08;;;3.60;99.90;;;;;;2602789;54;20271;31
2022/03/18 02:04:52;;;;;;;35.38;18.77;;;3.60;99.90;;;;;;2602527;54;20035;31
2022/03/18 02:07:26;;;;;;;;;;;3.50;99.90;;;;;;2603057;54;20566;31
2022/03/18 02:10:04;;;;;;;34.70;19.35;;;3.50;99.90;;;;;;2602687;54;20732;31
2022/03/18 02:12:46;;;;;;;33.13;18.65;;;3.40;99.90;;;;;;2601757;54;20030;31
2022/03/18 02:15:26;;;;;;;36.03;18.60;;;3.50;99.90;;;;;;2601910;54;20911;31
2022/03/18 02:18:05;;;;;;;34.35;18.15;;;3.40;99.90;;;;;;2620950;47;20049;31
2022/03/18 02:20:41;;;;;;;31.03;17.93;;;3.40;99.90;;;;;;2602742;54;20026;31
2022/03/18 02:23:20;;;;;;;36.35;19.10;;;3.30;99.90;;;;;;2601826;54;20029;31
2022/03/18 02:25:56;;;;;;;32.28;18.25;;;3.40;99.90;;;;;;2602709;54;20034;31
2022/03/18 02:28:32;;;;;;;35.45;19.20;;;3.30;99.90;;;;;;2620988;47;22378;31
2022/03/18 02:31:07;;;;;;;;;;;3.20;99.90;;;;;;2602603;54;20081;31
2022/03/18 02:33:42;;;;;;;34.43;18.87;;;3.20;99.90;;;;;;2602486;54;19997;31
2022/03/18 02:36:16;;;;;;;31.15;18.95;;;3.20;99.90;;;;;;2602664;54;21151;31
2022/03/18 02:38:54;;;;;;;33.40;17.85;;;3.10;99.90;;;;;;2621082;47;20919;31
2022/03/18 02:41:32;;;;;;;31.50;17.00;;;3.10;99.90;;;;;;2602430;54;20892;31
2022/03/18 02:44:08;;;;;;;33.50;18.20;;;3.10;99.90;;;;;;2602443;54;20953;31
2022/03/18 02:46:45;;;;;;;;;;;3.10;99.90;;;;;;2602636;54;20041;31
2022/03/18 02:49:20;;;;;;;31.05;17.02;;;3.10;99.90;;;;;;2602615;54;20743;31
2022/03/18 02:51:56;;;;;;;34.42;18.15;;;3.10;99.90;;;;;;2700774;39;20483;31
2022/03/18 02:54:38;;;;;;;30.13;17.02;;;3.10;99.90;;;;;;2602462;54;21359;31
2022/03/18 02:57:15;;;;;;;31.10;17.42;;;3.00;99.90;;;;;;2603161;54;20137;31
2022/03/18 02:59:50;;;;;;;33.65;17.50;;;2.90;99.90;;;;;;2603458;54;20882;31
2022/03/18 03:02:25;;;;;;;28.85;17.05;;;3.00;99.90;;;;;;2603284;54;20026;31
2022/03/18 03:08:04;;;;;;;29.00;17.27;;;2.90;99.90;;;;;;2603217;54;20890;31
2022/03/18 03:10:43;;;;;;;34.40;18.00;;;2.80;99.90;;;;;;2603203;54;21381;31
2022/03/18 03:13:18;;;;;;;28.88;16.65;;;2.80;99.90;;;;;;2603153;54;20864;31
2022/03/18 03:15:53;;;;;;;31.80;17.15;;;2.70;99.90;;;;;;2603403;54;20034;31
2022/03/18 03:18:31;;;;;;;29.85;15.88;;;2.70;99.90;;;;;;2603412;54;20037;31
2022/03/18 03:21:09;;;;;;;29.10;16.15;;;2.70;99.90;;;;;;2603068;54;20026;31
2022/03/18 03:23:45;;;;;;;31.60;15.60;;;2.60;99.90;;;;;;2622118;46;21347;31
2022/03/18 03:26:23;;;;;;;31.60;16.75;;;2.70;99.90;;;;;;2622098;46;20902;31
2022/03/18 03:29:00;;;;;;;28.05;16.33;;;2.50;99.90;;;;;;2603147;54;20027;31
2022/03/18 03:31:38;;;;;;;28.95;15.30;;;2.50;99.90;;;;;;2621724;46;20042;31
2022/03/18 03:34:17;;;;;;;29.65;15.93;;;2.50;99.90;;;;;;2621740;46;20042;31
2022/03/18 03:36:53;;;;;;;31.27;14.85;;;2.50;99.90;;;;;;2602409;54;20034;31
2022/03/18 03:39:29;;;;;;;30.70;15.07;;;2.50;99.90;;;;;;2603180;54;20901;31
2022/03/18 03:42:09;;;;;;;26.70;15.75;;;2.40;99.90;;;;;;2603134;54;20269;31
2022/03/18 03:44:45;;;;;;;29.13;16.30;;;2.40;99.90;;;;;;2621501;46;20030;31
2022/03/18 03:47:23;;;;;;;26.05;14.75;;;2.30;99.90;;;;;;2603077;54;20140;31
2022/03/18 03:50:00;;;;;;;28.95;15.32;;;2.30;99.90;;;;;;2603095;54;20050;31
2022/03/18 03:52:35;;;;;;;27.70;14.95;;;2.30;99.90;;;;;;2603063;54;20030;31
2022/03/18 03:55:14;;;;;;;25.98;14.75;;;2.40;99.90;;;;;;2603155;54;20036;31
2022/03/18 03:57:55;;;;;;;29.77;14.60;;;2.30;99.90;;;;;;2603298;54;20026;31
2022/03/18 04:03:05;;;;;;;23.85;13.95;;;2.30;99.90;;;;;;2620612;46;20045;31
2022/03/18 04:05:40;;;;;;;28.40;15.70;;;2.20;99.90;;;;;;2603304;54;20892;31
2022/03/18 04:08:19;;;;;;;27.08;15.05;;;2.30;99.90;;;;;;2603137;54;20022;31
2022/03/18 04:10:57;;;;;;;33.10;16.00;;;2.20;99.90;;;;;;2603374;54;20072;31
2022/03/18 04:16:12;;;;;;;28.50;15.73;;;2.20;99.90;;;;;;2603370;54;21191;31
2022/03/18 04:18:49;;;;;;;31.42;16.33;;;2.20;99.90;;;;;;2603157;54;20026;31
2022/03/18 04:21:25;;;;;;;23.88;14.15;;;2.10;99.90;;;;;;2603093;54;20091;31
2022/03/18 04:24:03;;;;;;;29.38;14.43;;;2.00;99.90;;;;;;2621425;46;20033;31
2022/03/18 04:26:40;;;;;;;27.20;16.17;;;2.10;99.90;;;;;;2621044;46;20086;31
2022/03/18 04:29:16;;;;;;;31.75;15.60;;;2.10;99.90;;;;;;2602364;54;20033;31
2022/03/18 04:31:55;;;;;;;30.48;16.02;;;2.10;99.90;;;;;;2603078;54;20877;31
2022/03/18 04:34:30;;;;;;;25.88;15.38;;;2.10;99.90;;;;;;2602934;54;20943;31
2022/03/18 04:37:08;;;;;;;26.60;15.10;;;2.00;99.90;;;;;;2603012;54;20885;31
2022/03/18 04:39:46;;;;;;;30.42;16.45;;;2.00;99.90;;;;;;2605871;46;20032;31
2022/03/18 04:42:22;;;;;;;27.35;15.15;;;1.90;99.90;;;;;;2602133;54;20070;31
2022/03/18 04:44:59;;;;;;;;;;;1.90;99.90;;;;;;2603170;54;20033;31
2022/03/18 04:47:38;;;;;;;32.83;16.65;;;1.90;99.90;;;;;;2603093;54;19934;31
2022/03/18 04:50:14;;;;;;;27.45;15.35;;;1.90;99.90;;;;;;2603054;54;20730;31
2022/03/18 04:52:48;;;;;;;;;;;1.80;99.90;;;;;;2615415;46;20033;31
2022/03/18 04:55:23;;;;;;;26.33;14.10;;;1.80;99.90;;;;;;2602286;54;20760;31
2022/03/18 04:58:00;;;;;;;31.23;15.83;;;1.90;99.90;;;;;;2603053;54;20885;31
2022/03/18 05:00:37;;;;;;;28.38;14.57;;;1.80;99.90;;;;;;2603050;54;20107;31
2022/03/18 05:03:16;;;;;;;26.63;15.25;;;1.60;99.90;;;;;;2602748;54;20045;31
2022/03/18 05:05:52;;;;;;;28.25;13.90;;;1.70;99.90;;;;;;2602812;54;20819;31
2022/03/18 05:08:28;;;;;;;;;;;1.70;99.90;;;;;;2603087;54;20854;31
2022/03/18 05:11:06;;;;;;;28.30;13.95;;;1.70;99.90;;;;;;2621318;46;20685;31
2022/03/18 05:13:42;;;;;;;25.45;14.70;;;1.70;99.90;;;;;;2602750;54;20034;31
2022/03/18 05:16:18;;;;;;;29.10;15.27;;;1.60;99.90;;;;;;2602849;54;20864;31
2022/03/18 05:18:56;;;;;;;30.55;15.05;;;1.60;99.90;;;;;;2620833;46;22487;31
2022/03/18 05:21:35;;;;;;;30.40;15.20;;;1.60;99.90;;;;;;2602990;54;20589;31
2022/03/18 05:24:14;;;;;;;30.45;16.55;;;1.70;99.90;;;;;;2602640;54;20030;31
2022/03/18 05:29:22;;;;;;;30.65;17.08;;;1.60;99.90;;;;;;2602979;54;20027;31
2022/03/18 05:31:58;;;;;;;26.70;15.45;;;1.60;99.90;;;;;;2602953;54;20031;31
2022/03/18 05:34:44;;;;;;;26.53;15.67;;;1.60;99.90;;;;;;2602648;54;20850;31
2022/03/18 05:37:21;;;;;;;25.40;15.60;;;1.60;99.90;;;;;;2602762;54;20030;31
2022/03/18 05:39:58;;;;;;;32.10;16.48;;;1.60;99.90;;;;;;2603046;54;20057;31
2022/03/18 05:42:34;;;;;;;33.93;15.73;;;1.60;99.90;;;;;;2603038;54;20026;31
2022/03/18 05:45:12;;;;;;;28.50;15.53;;;1.60;99.90;;;;;;2602390;54;20234;31
2022/03/18 05:47:47;;;;;;;28.42;16.55;;;1.60;99.90;;;;;;2602715;54;20930;31
2022/03/18 05:50:29;;;;;;;26.67;16.13;;;1.60;99.90;;;;;;2602794;54;20030;31
2022/03/18 05:53:12;;;;;;;30.02;15.80;;;1.60;99.90;;;;;;2621038;46;21333;31
2022/03/18 05:58:38;;;;;;;40.50;23.75;;;1.70;99.90;;;;;;2621455;46;20896;31
2022/03/18 06:01:19;;;;;;;29.85;20.13;;;1.70;99.90;;;;;;2602897;54;20038;31
2022/03/18 06:03:58;;;;;;;36.72;26.38;;;1.70;99.90;;;;;;2602770;54;20857;31
2022/03/18 06:06:38;;;;;;;40.80;28.77;;;1.70;99.90;;;;;;2602645;54;20831;31
2022/03/18 06:12:03;;;;;;;78.07;40.03;;;1.90;99.90;;;;;;2602605;54;20030;31
2022/03/18 06:14:41;;;;;;;51.90;28.90;;;1.90;99.90;;;;;;2601777;54;20765;31
2022/03/18 06:17:20;;;;;;;32.25;20.80;;;2.00;99.90;;;;;;2602818;54;20033;31
2022/03/18 06:19:58;;;;;;;33.25;18.60;;;2.00;99.90;;;;;;2704770;39;20456;31
2022/03/18 06:22:37;;;;;;;31.75;17.50;;;2.30;99.90;;;;;;2614138;47;20034;31
2022/03/18 06:25:12;;;;;;;31.85;17.40;;;2.40;99.90;;;;;;2700905;39;20497;31
2022/03/18 06:27:48;;;;;;;27.40;15.90;;;2.50;99.90;;;;;;2602759;54;20026;31
2022/03/18 06:30:24;;;;;;;28.50;15.40;;;2.70;99.90;;;;;;2603179;54;20105;31
2022/03/18 06:32:59;;;;;;;29.50;15.77;;;2.70;99.90;;;;;;2603408;54;20253;31
2022/03/18 06:35:37;;;;;;;26.65;16.02;;;2.80;99.90;;;;;;2602738;54;20022;31
2022/03/18 06:38:14;;;;;;;30.35;15.85;;;3.10;99.90;;;;;;2621499;46;20033;31
2022/03/18 06:40:50;;;;;;;31.40;15.68;;;3.40;99.90;;;;;;2603443;54;20026;31
2022/03/18 06:43:25;;;;;;;29.30;15.95;;;3.60;99.90;;;;;;2621599;46;20029;31
2022/03/18 06:46:03;;;;;;;70.17;28.20;;;3.80;99.90;;;;;;2603390;54;20030;31
2022/03/18 06:48:43;;;;;;;25.45;15.60;;;4.00;99.90;;;;;;2603427;54;21175;31
2022/03/18 06:51:18;;;;;;;26.23;15.90;;;4.20;99.90;;;;;;2621714;46;20892;31
2022/03/18 06:53:59;;;;;;;39.00;22.20;;;4.40;99.90;;;;;;2603394;54;20955;31
2022/03/18 06:56:32;;;;;;;60.80;41.25;;;4.50;99.90;;;;;;2603261;54;20096;31
2022/03/18 06:59:09;;;;;;;158.82;98.78;;;4.60;99.90;;;;;;2603395;54;20030;31
2022/03/18 07:01:44;;;;;;;63.55;41.90;;;4.60;99.90;;;;;;2602621;54;20771;31
2022/03/18 07:04:20;;;;;;;36.00;25.23;;;4.80;99.90;;;;;;2603161;54;20026;31
2022/03/18 07:06:57;;;;;;;30.10;16.58;;;5.10;99.90;;;;;;2603222;54;20053;31
2022/03/18 07:09:39;;;;;;;26.17;16.38;;;5.20;99.90;;;;;;2603251;54;20027;31
2022/03/18 07:12:16;;;;;;;28.48;15.48;;;5.30;99.90;;;;;;2603316;54;20033;31
2022/03/18 07:14:51;;;;;;;25.98;15.93;;;5.50;99.90;;;;;;2603078;54;20104;31
2022/03/18 07:20:22;;;;;;;26.10;14.40;;;5.70;99.40;;;;;;2603160;54;20030;31
2022/03/18 07:23:16;;;;;;;28.92;16.45;;;5.80;99.30;;;;;;2602949;54;20027;31
2022/03/18 07:25:58;;;;;;;29.77;16.95;;;5.80;98.80;;;;;;2603245;54;20757;31
2022/03/18 07:28:34;;;;;;;25.10;15.70;;;5.80;98.80;;;;;;2621626;46;20026;31
2022/03/18 07:31:10;;;;;;;31.10;16.60;;;5.80;99.20;;;;;;2701585;39;20399;31
2022/03/18 07:33:46;;;;;;;;;;;5.90;98.80;;;;;;2602475;54;21087;31
2022/03/18 07:36:23;;;;;;;26.88;15.68;;;5.90;98.10;;;;;;2620997;46;20675;31
2022/03/18 07:39:00;;;;;;;27.95;16.80;;;6.00;98.30;;;;;;2603296;54;20920;31
2022/03/18 07:41:38;;;;;;;27.90;16.20;;;6.10;98.30;;;;;;2602991;54;21132;31
2022/03/18 07:44:16;;;;;;;29.35;16.52;;;6.20;98.00;;;;;;2603010;54;20022;31
2022/03/18 07:46:52;;;;;;;27.75;15.55;;;6.40;97.90;;;;;;2603084;54;20078;31
2022/03/18 07:49:29;;;;;;;25.67;15.70;;;6.60;98.50;;;;;;2603129;54;20822;31
2022/03/18 07:52:04;;;;;;;25.23;15.10;;;6.80;97.40;;;;;;2609890;46;20046;31
2022/03/18 07:54:41;;;;;;;24.15;15.50;;;6.80;96.90;;;;;;2701367;39;20513;31
2022/03/18 07:57:22;;;;;;;23.45;15.90;;;6.80;97.20;;;;;;2603196;54;20762;31
2022/03/18 07:59:59;;;;;;;26.40;14.93;;;6.90;97.00;;;;;;2603030;54;20859;31
2022/03/18 08:02:37;;;;;;;26.30;15.40;;;7.00;96.90;;;;;;2602434;54;20023;31
2022/03/18 08:05:12;;;;;;;25.13;15.00;;;7.00;96.70;;;;;;2602097;54;20031;31
2022/03/18 08:07:47;;;;;;;25.25;15.25;;;7.00;96.50;;;;;;2603139;54;20869;31
2022/03/18 08:10:22;;;;;;;26.95;15.13;;;7.10;95.60;;;;;;2621397;46;21159;31
2022/03/18 08:13:00;;;;;;;26.97;15.73;;;7.30;95.90;;;;;;2620965;46;20027;31
2022/03/18 08:15:33;;;;;;;26.73;15.88;;;7.40;95.10;;;;;;2621271;46;21206;31
2022/03/18 08:18:12;;;;;;;33.30;19.05;;;7.50;95.00;;;;;;2621093;46;20772;31
2022/03/18 08:20:47;;;;;;;27.07;17.07;;;7.80;94.80;;;;;;2621539;46;20027;31
2022/03/18 08:23:23;;;;;;;28.77;18.03;;;8.00;94.50;;;;;;2602916;54;21182;31
2022/03/18 08:25:58;;;;;;;28.90;17.97;;;8.30;94.30;;;;;;2603001;54;21163;31
2022/03/18 08:28:36;;;;;;;25.25;16.48;;;8.60;93.70;;;;;;2602886;54;20752;31
2022/03/18 08:31:18;;;;;;;24.70;17.20;;;9.00;93.50;;;;;;2701287;39;20521;31
2022/03/18 08:33:53;;;;;;;25.40;16.20;;;9.40;92.30;;;;;;2602826;54;20057;31
2022/03/18 08:36:29;;;;;;;22.92;15.43;;;9.70;92.00;;;;;;2602569;54;20038;31
2022/03/18 08:39:06;;;;;;;26.55;16.25;;;10.10;92.40;;;;;;2602681;54;20027;31
2022/03/18 08:41:42;;;;;;;25.50;15.88;;;10.50;91.80;;;;;;2621230;46;20776;31
2022/03/18 08:44:24;;;;;;;28.63;17.75;;;10.90;90.90;;;;;;2602655;54;20053;31
2022/03/18 08:47:00;;;;;;;24.77;16.50;;;11.20;89.70;;;;;;2602967;54;20027;31
2022/03/18 08:49:36;;;;;;;27.63;17.13;;;11.40;87.50;;;;;;2602687;54;20100;31
2022/03/18 08:52:11;;;;;;;30.23;17.50;;;11.60;89.30;;;;;;2602819;54;20853;31
2022/03/18 08:54:47;;;;;;;27.90;16.43;;;11.80;85.30;;;;;;2602632;54;20052;31
2022/03/18 08:57:23;;;;;;;28.00;18.48;;;12.00;83.30;;;;;;2621204;46;20879;31
2022/03/18 09:00:02;;;;;;;26.80;18.80;;;12.10;81.30;;;;;;2602726;54;20113;31
2022/03/18 09:02:36;;;;;;;30.83;18.23;;;12.30;80.40;;;;;;2602683;54;20814;31
2022/03/18 09:05:11;;;;;;;28.55;19.05;;;12.50;80.80;;;;;;2602652;54;20030;31
2022/03/18 09:07:47;;;;;;;26.70;18.60;;;12.60;80.40;;;;;;2719662;39;20500;31
2022/03/18 09:10:20;;;;;;;33.20;19.45;;;12.80;79.00;;;;;;2621137;46;21185;31
2022/03/18 09:12:59;;;;;;;26.20;18.45;;;13.00;77.40;;;;;;2602740;54;20054;31
2022/03/18 09:15:36;;;;;;;28.52;18.63;;;13.10;77.30;;;;;;2602865;54;20050;31
2022/03/18 09:18:11;;;;;;;29.80;18.87;;;13.10;77.80;;;;;;2621041;46;20058;31
2022/03/18 09:20:51;;;;;;;35.87;17.97;;;13.10;76.10;;;;;;2602653;54;20048;31
2022/03/18 09:23:26;;;;;;;26.98;18.48;;;13.30;74.70;;;;;;2602663;54;20030;31
2022/03/18 09:26:05;;;;;;;31.38;18.00;;;13.20;75.50;;;;;;2602891;54;20952;31
2022/03/18 09:28:40;;;;;;;28.85;18.25;;;13.40;76.00;;;;;;2621596;46;20030;31
2022/03/18 09:31:18;;;;;;;27.00;18.47;;;13.60;75.50;;;;;;2621197;46;20037;31
2022/03/18 09:33:53;;;;;;;27.63;18.55;;;13.70;73.10;;;;;;2603058;54;20885;31
2022/03/18 09:36:29;;;;;;;25.07;17.93;;;13.80;71.40;;;;;;2602721;54;20030;31
2022/03/18 09:39:05;;;;;;;23.77;17.05;;;13.90;75.50;;;;;;2602946;54;20776;31
2022/03/18 09:41:39;;;;;;;24.90;17.77;;;14.10;73.80;;;;;;2603010;54;20897;31
2022/03/18 09:44:13;;;;;;;25.25;16.55;;;14.20;74.10;;;;;;2602877;54;20037;31
2022/03/18 09:46:53;;;;;;;26.90;17.05;;;14.30;75.60;;;;;;2602938;54;20027;31
2022/03/18 09:49:30;;;;;;;24.08;17.73;;;14.50;73.90;;;;;;2602721;54;20038;31
2022/03/18 09:52:05;;;;;;;;;;;14.60;72.60;;;;;;2602770;54;20093;31
2022/03/18 09:54:44;;;;;;;26.35;18.05;;;14.70;73.20;;;;;;2603209;54;20664;31
2022/03/18 09:57:23;;;;;;;27.63;18.15;;;14.70;72.40;;;;;;2602639;54;21091;31
2022/03/18 10:00:00;;;;;;;29.10;18.15;;;14.80;71.10;;;;;;2602613;54;20845;31
2022/03/18 10:02:48;;;;;;;29.43;18.73;;;14.90;72.50;;;;;;2602906;54;20122;31
2022/03/18 10:05:23;;;;;;;32.25;20.50;;;15.00;71.60;;;;;;2602674;54;20797;31
2022/03/18 10:07:58;;;;;;;28.83;19.77;;;15.10;71.10;;;;;;2602860;54;20034;31
2022/03/18 10:10:33;;;;;;;25.98;18.75;;;15.20;70.10;;;;;;2621274;46;20194;31
2022/03/18 10:13:09;;;;;;;28.95;19.42;;;15.20;69.10;;;;;;2621263;46;20029;31
2022/03/18 10:15:44;;;;;;;28.25;17.35;;;15.20;68.00;;;;;;2621037;47;20090;31
2022/03/18 10:18:22;;;;;;;28.70;18.15;;;15.10;70.70;;;;;;2602670;54;20030;31
2022/03/18 10:20:58;;;;;;;26.15;18.25;;;15.00;68.20;;;;;;2602872;54;20859;31
2022/03/18 10:23:33;;;;;;;28.50;18.60;;;14.90;69.30;;;;;;2602635;54;21448;31
2022/03/18 10:26:09;;;;;;;27.92;17.65;;;14.90;69.70;;;;;;2602872;54;20896;31
2022/03/18 10:28:46;;;;;;;24.98;16.95;;;14.80;69.50;;;;;;2621534;47;20802;31
2022/03/18 10:31:22;;;;;;;27.98;18.52;;;14.70;68.50;;;;;;2602679;54;20034;31
2022/03/18 10:39:40;;;;;;;24.80;16.45;;;14.60;69.80;;;;;;2602728;54;20832;31
2022/03/18 10:42:20;;;;;;;23.40;16.40;;;14.70;69.00;;;;;;2602742;54;20033;31
2022/03/18 10:44:57;;;;;;;20.85;15.60;;;14.70;68.20;;;;;;2602520;54;20825;31
2022/03/18 10:47:31;;;;;;;24.45;16.65;;;14.80;69.10;;;;;;2602627;54;22339;31
2022/03/18 10:50:29;;;;;;;22.48;16.70;;;14.90;68.00;;;;;;2602623;54;20574;31
2022/03/18 10:53:06;;;;;;;28.58;18.02;;;14.80;66.50;;;;;;2602529;54;20884;31
2022/03/18 10:55:42;;;;;;;25.40;16.88;;;14.80;69.00;;;;;;2602475;54;20825;31
2022/03/18 10:58:19;;;;;;;22.90;16.65;;;14.80;68.30;;;;;;2602545;54;20838;31
2022/03/18 11:00:59;;;;;;;27.15;15.30;;;14.90;67.60;;;;;;2602608;54;20770;31
2022/03/18 11:03:33;;;;;;;22.15;16.77;;;14.90;67.40;;;;;;2701094;39;20509;31
2022/03/18 11:06:11;;;;;;;21.90;15.50;;;14.80;66.00;;;;;;2771963;31;20628;31
2022/03/18 11:08:48;;;;;;;22.80;16.55;;;14.80;66.40;;;;;;2602475;54;20108;31
2022/03/18 11:11:27;;;;;;;23.17;15.68;;;14.70;68.20;;;;;;2602474;54;20031;31
2022/03/18 11:14:04;;;;;;;23.60;16.20;;;14.60;68.30;;;;;;2602639;54;20022;31
2022/03/18 11:16:42;;;;;;;23.47;14.40;;;14.50;65.90;;;;;;2602658;54;20238;31
2022/03/18 11:19:20;;;;;;;19.67;15.00;;;14.40;63.80;;;;;;2621836;46;20676;31
2022/03/18 11:22:03;;;;;;;18.05;12.25;;;14.30;65.60;;;;;;2621669;46;20034;31
2022/03/18 11:24:38;;;;;;;19.45;14.40;;;14.20;63.60;;;;;;2622020;46;20054;31
2022/03/18 11:27:14;;;;;;;19.85;13.35;;;14.20;65.40;;;;;;2602610;54;21821;31
2022/03/18 11:29:50;;;;;;;;;;;14.20;64.40;;;;;;2622059;46;20034;31
2022/03/18 11:32:29;;;;;;;19.87;13.23;;;14.20;70.80;;;;;;2621899;46;19941;31
2022/03/18 11:35:06;;;;;;;18.90;13.32;;;14.20;63.70;;;;;;2621584;46;22361;31
2022/03/18 11:37:44;;;;;;;21.13;12.60;;;14.00;63.20;;;;;;2603110;54;20030;31
2022/03/18 11:40:35;;;;;;;27.52;13.15;;;13.90;62.20;;;;;;2603246;54;22326;31
2022/03/18 11:43:32;;;;;;;17.17;13.43;;;13.80;62.00;;;;;;2621860;46;20037;31
2022/03/18 11:46:23;;;;;;;21.35;12.50;;;13.70;63.40;;;;;;2603071;54;20022;31
2022/03/18 11:49:05;;;;;;;19.30;13.90;;;13.70;63.90;;;;;;2603059;54;20030;31
2022/03/18 11:51:41;;;;;;;20.20;13.43;;;13.70;64.00;;;;;;2603346;54;20836;31
2022/03/18 11:54:26;;;;;;;19.60;14.45;;;13.70;63.30;;;;;;2621910;46;20157;31
2022/03/18 11:57:05;;;;;;;22.98;13.18;;;13.60;64.40;;;;;;2603189;54;20900;31
2022/03/18 11:59:47;;;;;;;21.60;14.95;;;13.50;63.80;;;;;;2603128;54;20033;31
2022/03/18 12:02:23;;;;;;;17.83;13.35;;;13.50;66.10;;;;;;2602324;54;20089;31
2022/03/18 12:04:58;;;;;;;18.98;14.20;;;13.50;65.60;;;;;;2602915;54;20077;31
2022/03/18 12:07:51;;;;;;;20.55;13.70;;;13.50;63.80;;;;;;2603103;54;20035;31
2022/03/18 12:10:39;;;;;;;20.15;13.68;;;13.40;63.80;;;;;;2603087;54;20084;31
2022/03/18 12:13:16;;;;;;;23.38;14.95;;;13.40;64.80;;;;;;2603311;54;20085;31
2022/03/18 12:15:52;;;;;;;22.75;14.40;;;13.30;62.80;;;;;;2603086;54;20181;31
2022/03/18 12:18:32;;;;;;;20.83;13.20;;;13.30;63.10;;;;;;2602947;54;20051;31
2022/03/18 12:21:13;;;;;;;23.70;13.85;;;13.30;65.50;;;;;;2603078;54;20033;31
2022/03/18 12:23:49;;;;;;;19.10;13.70;;;13.40;64.00;;;;;;2603108;54;20719;31
2022/03/18 12:26:32;;;;;;;24.00;14.60;;;13.40;64.30;;;;;;2602991;54;20127;31
2022/03/18 12:29:07;;;;;;;18.20;13.90;;;13.30;64.50;;;;;;2603250;54;20026;31
2022/03/18 12:31:44;;;;;;;21.15;14.70;;;13.20;65.20;;;;;;2602985;54;20030;31
2022/03/18 12:34:19;;;;;;;18.67;13.65;;;13.30;65.30;;;;;;2602719;54;20069;31
2022/03/18 12:36:54;;;;;;;17.55;12.77;;;13.20;64.10;;;;;;2602977;54;22612;31
2022/03/18 12:39:32;;;;;;;18.58;13.07;;;13.20;64.80;;;;;;2603010;54;20037;31
2022/03/18 12:42:16;;;;;;;19.60;13.10;;;13.10;63.30;;;;;;2603067;54;20117;31
2022/03/18 12:44:57;;;;;;;17.05;12.23;;;13.10;63.30;;;;;;2602084;54;20022;31
2022/03/18 12:47:35;;;;;;;18.55;11.18;;;13.00;62.00;;;;;;2602202;54;20022;31
2022/03/18 12:50:12;;;;;;;16.27;12.50;;;12.90;60.30;;;;;;2602969;54;20974;31
2022/03/18 12:52:47;;;;;;;19.70;13.10;;;12.80;61.00;;;;;;2602944;54;20034;31
2022/03/18 12:55:23;;;;;;;19.17;14.37;;;12.80;62.60;;;;;;2621154;46;20799;31
2022/03/18 12:58:10;;;;;;;18.23;13.00;;;12.80;63.80;;;;;;2602755;54;20086;31
2022/03/18 13:00:46;;;;;;;19.98;13.02;;;12.80;64.60;;;;;;2606512;46;20027;31
2022/03/18 13:03:25;;;;;;;17.67;11.52;;;12.80;62.10;;;;;;2602191;54;20030;31
2022/03/18 13:06:11;;;;;;;18.40;12.80;;;12.80;62.20;;;;;;2602818;54;20866;31
2022/03/18 13:08:47;;;;;;;15.48;12.38;;;12.70;62.80;;;;;;2602777;54;20031;31
2022/03/18 13:11:23;;;;;;;16.55;12.52;;;12.70;62.30;;;;;;2602745;54;20034;31
2022/03/18 13:14:05;;;;;;;22.90;13.15;;;12.70;62.10;;;;;;2602043;54;21464;31
2022/03/18 13:16:42;;;;;;;17.45;11.95;;;12.80;63.30;;;;;;2601821;54;20022;31
2022/03/18 13:19:20;;;;;;;18.75;12.60;;;12.70;62.30;;;;;;2602790;54;20842;31
2022/03/18 13:21:57;;;;;;;18.50;12.60;;;12.70;62.30;;;;;;2602666;54;20105;31
2022/03/18 13:24:31;;;;;;;18.47;12.23;;;12.60;61.60;;;;;;2621138;46;22430;31
2022/03/18 13:27:11;;;;;;;16.20;11.90;;;12.60;61.20;;;;;;2601905;54;20038;31
2022/03/18 13:32:56;;;;;;;19.40;12.55;;;12.60;62.90;;;;;;2602764;54;20089;31
2022/03/18 13:35:31;;;;;;;18.85;11.10;;;12.60;62.30;;;;;;2602804;54;20051;31
2022/03/18 13:38:09;;;;;;;18.05;11.45;;;12.50;60.30;;;;;;2602740;54;20869;31
2022/03/18 13:40:55;;;;;;;15.93;10.05;;;12.50;61.90;;;;;;2602313;54;20940;31
2022/03/18 13:43:33;;;;;;;17.40;10.50;;;12.50;62.50;;;;;;2620969;46;20026;31
2022/03/18 13:46:18;;;;;;;14.45;10.45;;;12.50;62.60;;;;;;2613552;46;20036;31
2022/03/18 13:48:57;;;;;;;17.50;10.10;;;12.50;62.90;;;;;;2602673;54;20030;31
2022/03/18 13:51:35;;;;;;;22.65;10.40;;;12.50;62.60;;;;;;2602719;54;20874;31
2022/03/18 13:54:16;;;;;;;13.98;9.80;;;12.60;61.70;;;;;;2602567;54;20038;31
2022/03/18 13:56:50;;;;;;;14.30;10.60;;;12.60;61.20;;;;;;2602467;54;20042;31
2022/03/18 13:59:30;;;;;;;15.85;11.23;;;12.60;62.20;;;;;;2602500;54;20484;31
2022/03/18 14:02:09;;;;;;;16.23;10.30;;;12.60;61.20;;;;;;2602622;54;20153;31
2022/03/18 14:04:44;;;;;;;14.77;10.80;;;12.60;61.00;;;;;;2620986;46;22341;31
2022/03/18 14:07:24;;;;;;;13.90;10.75;;;12.50;59.60;;;;;;2602776;54;20911;31
2022/03/18 14:09:59;;;;;;;16.88;11.48;;;12.50;60.50;;;;;;2602838;54;22402;31
2022/03/18 14:12:36;;;;;;;16.20;11.05;;;12.50;60.70;;;;;;2602713;54;20026;31
2022/03/18 14:15:15;;;;;;;14.20;9.82;;;12.50;60.40;;;;;;2620920;46;20037;31
2022/03/18 14:18:19;;;;;;;16.40;11.18;;;12.50;67.60;;;;;;2609074;47;20022;31
2022/03/18 14:21:03;;;;;;;15.35;10.70;;;12.40;59.50;;;;;;2602600;54;20031;31